Time;durP1;ratioP1;P1;durP2;ratioP2;P2;SDS_P1;SDS_P2;PMS_P1;PMS_P2;Temp;Humidity;BMP_temperature;BMP_pressure;BME280_temperature;BME280_humidity;BME280_pressure;Samples;Min_cycle;Max_cycle;Signal;HPM_P1;HPM_P2
2023/08/03 00:00:56;;;;;;;21.67;13.63;;;;;;;-144.30;66.18;83701.13;5069095;28;20200;-54
2023/08/03 00:03:41;;;;;;;16.15;13.95;;;;;;;-144.30;66.01;83723.00;5069412;28;20700;-50
2023/08/03 00:06:40;;;;;;;15.13;12.65;;;;;;;-144.30;65.67;83734.91;5069040;28;20195;-50
2023/08/03 00:09:18;;;;;;;14.48;13.13;;;;;;;-144.30;65.31;83707.09;5069059;28;20200;-51
2023/08/03 00:12:05;;;;;;;17.40;13.20;;;;;;;-144.30;64.55;83697.16;5068493;28;20256;-54
2023/08/03 00:15:04;;;;;;;13.10;11.90;;;;;;;-144.30;64.28;83663.38;5068814;28;20253;-53
2023/08/03 00:17:57;;;;;;;13.20;12.10;;;;;;;-144.30;64.04;83717.03;5068721;28;20322;-50
2023/08/03 00:20:43;;;;;;;13.75;12.35;;;;;;;-144.30;62.93;83707.09;5068604;28;20196;-54
2023/08/03 00:23:37;;;;;;;12.20;10.93;;;;;;;-144.30;61.57;83701.13;5068095;28;20204;-50
2023/08/03 00:26:36;;;;;;;11.38;10.57;;;;;;;-144.30;61.41;83671.34;5104644;28;20317;-53
2023/08/03 00:32:14;;;;;;;11.60;10.70;;;;;;;-144.30;61.99;83719.03;5102566;28;20713;-50
2023/08/03 00:35:04;;;;;;;12.10;11.05;;;;;;;-144.30;61.28;83726.97;5106076;28;20236;-49
2023/08/03 00:38:01;;;;;;;12.65;11.32;;;;;;;-144.30;60.77;83663.38;5108834;28;20318;-49
2023/08/03 00:40:54;;;;;;;11.23;10.40;;;;;;;-144.30;60.59;83734.91;5111928;28;20213;-54
2023/08/03 00:43:50;;;;;;;11.43;10.63;;;;;;;-144.30;60.67;83738.88;5126861;28;20209;-49
2023/08/03 00:46:40;;;;;;;11.82;10.93;;;;;;;-144.30;60.43;83736.91;5127390;28;20198;-54
2023/08/03 00:52:30;;;;;;;11.60;10.75;;;;;;;-144.30;60.69;83766.72;5129272;28;20205;-53
2023/08/03 00:55:30;;;;;;;12.40;11.30;;;;;;;-144.30;60.59;83766.72;5132388;27;20194;-53
2023/08/03 00:58:11;;;;;;;11.63;10.82;;;;;;;-144.30;60.18;83693.19;5133629;27;20222;-51
2023/08/03 01:00:56;;;;;;;11.60;10.50;;;;;;;-144.30;60.47;83744.84;5133176;27;20247;-54
2023/08/03 01:03:43;;;;;;;12.00;10.88;;;;;;;-144.30;60.43;83778.63;5133269;27;20646;-54
2023/08/03 01:06:29;;;;;;;11.50;10.60;;;;;;;-144.30;60.42;83794.53;5133234;27;20208;-55
2023/08/03 01:09:13;;;;;;;11.43;10.48;;;;;;;-144.30;60.53;83850.16;5131845;27;20190;-50
2023/08/03 01:12:04;;;;;;;12.48;11.52;;;;;;;-144.30;60.41;83762.72;5133392;27;20190;-52
2023/08/03 01:14:52;;;;;;;11.73;10.52;;;;;;;-144.30;59.93;83794.53;5132935;27;20670;-54
2023/08/03 01:17:19;;;;;;;11.52;10.73;;;;;;;-144.30;59.72;83778.63;5132609;27;20313;-51
2023/08/03 01:20:10;;;;;;;10.98;9.93;;;;;;;-144.30;59.82;83758.75;5133064;27;20197;-50
2023/08/03 01:23:05;;;;;;;11.07;10.25;;;;;;;-144.30;60.04;83810.41;5130093;27;20282;-51
2023/08/03 01:25:58;;;;;;;11.20;10.13;;;;;;;-144.30;60.11;83796.50;5132489;27;20744;-53
2023/08/03 01:28:47;;;;;;;11.70;10.50;;;;;;;-144.30;59.90;83762.72;5131564;27;20233;-48
2023/08/03 01:31:35;;;;;;;10.85;10.00;;;;;;;-144.30;59.76;83802.47;5132777;27;20198;-53
2023/08/03 01:34:17;;;;;;;11.82;10.60;;;;;;;-144.30;59.95;83699.16;5131803;27;20190;-54
2023/08/03 01:37:12;;;;;;;12.10;10.98;;;;;;;-144.30;60.17;83792.53;5128787;27;20237;-54
2023/08/03 01:40:14;;;;;;;11.07;10.27;;;;;;;-144.30;60.29;83828.31;5132139;27;20205;-50
2023/08/03 01:43:00;;;;;;;11.55;10.57;;;;;;;-144.30;60.82;83796.50;5132431;27;20285;-51
2023/08/03 01:45:43;;;;;;;11.50;10.70;;;;;;;-144.30;61.38;83826.31;5130844;27;20673;-52
2023/08/03 01:48:21;;;;;;;11.90;11.00;;;;;;;-144.30;62.59;83854.13;5132414;27;20239;-54
2023/08/03 01:51:27;;;;;;;;;;;;;;;;;;;;;
2023/08/03 01:54:08;;;;;;;12.65;11.63;;;;;;;-144.30;63.76;83879.97;5131944;27;20210;-51
2023/08/03 01:57:06;;;;;;;14.50;13.00;;;;;;;-144.30;64.12;83856.13;5131131;27;20221;-53
2023/08/03 02:02:50;;;;;;;12.95;11.75;;;;;;;-144.30;64.96;83846.19;5132284;27;20582;-54
2023/08/03 02:08:35;;;;;;;13.95;12.70;;;;;;;-144.30;65.38;83905.81;5129858;27;20666;-53
2023/08/03 02:14:24;;;;;;;14.07;12.65;;;;;;;-144.30;65.31;83848.19;5128083;27;20670;-53
2023/08/03 02:17:17;;;;;;;13.88;12.60;;;;;;;-144.30;65.95;83887.91;5130871;27;20562;-54
2023/08/03 02:23:07;;;;;;;13.55;12.27;;;;;;;-144.30;65.64;83850.16;5131839;27;20194;-50
2023/08/03 02:26:06;;;;;;;13.52;12.27;;;;;;;-144.30;65.37;83802.47;5129439;27;20751;-54
2023/08/03 02:28:45;;;;;;;13.05;11.88;;;;;;;-144.30;65.20;83830.28;5131954;27;20217;-53
2023/08/03 02:31:52;;;;;;;13.15;11.90;;;;;;;-144.30;65.35;83830.28;5131391;27;20709;-50
2023/08/03 02:34:47;;;;;;;14.20;12.35;;;;;;;-144.30;65.54;83814.41;5131156;27;20757;-53
2023/08/03 02:37:57;;;;;;;;;;;;;;;;;;;;;
2023/08/03 02:40:57;;;;;;;12.30;11.38;;;;;;;-144.30;66.06;83850.16;5127764;27;20224;-53
2023/08/03 02:43:45;;;;;;;14.13;12.50;;;;;;;-144.30;65.68;83870.03;5130633;27;20251;-51
2023/08/03 02:46:46;;;;;;;13.27;11.75;;;;;;;-144.30;65.25;83848.19;5131233;27;20685;-49
2023/08/03 02:49:40;;;;;;;14.30;13.00;;;;;;;-144.30;65.13;83838.25;5131414;27;20201;-53
2023/08/03 02:52:40;;;;;;;13.77;12.38;;;;;;;-144.30;64.88;83877.97;5129709;27;20289;-54
2023/08/03 02:55:39;;;;;;;14.10;12.15;;;;;;;-144.30;65.07;83913.75;5130882;27;20233;-54
2023/08/03 02:58:16;;;;;;;12.85;11.85;;;;;;;-144.30;64.96;83870.03;5130027;27;20308;-51
2023/08/03 03:01:02;;;;;;;15.30;12.73;;;;;;;-144.30;64.77;83893.88;5130919;27;20197;-50
2023/08/03 03:03:39;;;;;;;14.60;13.05;;;;;;;-144.30;64.62;83907.78;5129994;27;20202;-50
2023/08/03 03:06:17;;;;;;;13.60;12.50;;;;;;;-144.30;64.81;83911.75;5131395;27;20200;-51
2023/08/03 03:08:49;;;;;;;13.45;12.20;;;;;;;-144.30;64.88;83949.50;5128037;27;20192;-53
2023/08/03 03:11:23;;;;;;;14.77;13.05;;;;;;;-144.30;65.23;83919.72;5130645;27;20190;-49
2023/08/03 03:13:56;;;;;;;13.10;11.65;;;;;;;-144.30;65.34;83961.44;5130732;27;20194;-50
2023/08/03 03:16:26;;;;;;;14.13;12.73;;;;;;;-144.30;65.69;83953.50;5130543;27;20194;-51
2023/08/03 03:18:59;;;;;;;12.88;11.77;;;;;;;-144.30;66.29;83981.31;5130713;27;20260;-50
2023/08/03 03:21:31;;;;;;;14.70;13.27;;;;;;;-144.30;66.77;84001.19;5130864;27;20197;-54
2023/08/03 03:24:04;;;;;;;12.82;11.63;;;;;;;-144.30;66.99;84013.09;5130657;27;20631;-50
2023/08/03 03:26:33;;;;;;;12.95;11.85;;;;;;;-144.30;66.90;84011.13;5130532;27;20234;-50
2023/08/03 03:29:06;;;;;;;17.25;11.57;;;;;;;-144.30;67.21;84068.75;5130532;27;20201;-52
2023/08/03 03:34:51;;;;;;;13.88;12.25;;;;;;;-144.30;65.92;84025.03;5130341;27;20210;-49
2023/08/03 03:37:36;;;;;;;17.13;12.23;;;;;;;-144.30;65.83;84029.00;5128073;27;20217;-54
2023/08/03 03:40:31;;;;;;;16.20;12.43;;;;;;;-144.30;65.37;84025.03;5109809;28;20651;-54
2023/08/03 03:43:08;;;;;;;14.57;11.93;;;;;;;-144.30;65.19;84001.19;5110183;28;20658;-50
2023/08/03 03:45:55;;;;;;;12.50;11.32;;;;;;;-144.30;65.13;84003.16;5109657;28;20204;-53
2023/08/03 03:48:25;;;;;;;15.02;11.95;;;;;;;-144.30;64.72;84015.09;5109009;28;20230;-54
2023/08/03 03:51:17;;;;;;;;;;;;;;;;;;;;;
2023/08/03 03:54:11;;;;;;;13.38;11.80;;;;;;;-144.30;64.98;84019.06;5108749;28;20206;-51
2023/08/03 03:56:41;;;;;;;12.43;11.23;;;;;;;-144.30;64.79;83997.22;5109551;28;20670;-54
2023/08/03 03:59:27;;;;;;;18.95;11.57;;;;;;;-144.30;63.97;83933.63;5109505;28;20321;-53
2023/08/03 04:02:18;;;;;;;14.00;11.60;;;;;;;-144.30;61.30;83822.34;5109068;28;20202;-50
2023/08/03 04:05:09;;;;;;;13.30;12.00;;;;;;;-144.30;58.22;83683.25;5108756;28;20198;-50
2023/08/03 04:07:55;;;;;;;12.20;10.93;;;;;;;-144.30;55.20;83518.34;5108255;28;20191;-50
2023/08/03 04:10:50;;;;;;;12.63;11.32;;;;;;;-144.30;52.19;83299.78;5109383;28;20251;-54
2023/08/03 04:13:30;;;;;;;12.32;11.15;;;;;;;-144.30;49.71;83162.72;5109058;28;20195;-50
2023/08/03 04:16:13;;;;;;;13.45;10.88;;;;;;;-144.30;47.53;82944.19;5128873;28;20201;-54
2023/08/03 04:18:51;;;;;;;12.27;10.85;;;;;;;-144.30;45.27;82813.06;5126847;28;20265;-53
2023/08/03 04:21:40;;;;;;;12.15;11.35;;;;;;;-144.30;44.16;82588.63;5126595;28;20193;-50
2023/08/03 04:24:36;;;;;;;12.30;11.13;;;;;;;-144.30;42.26;82435.66;5128377;28;20189;-50
2023/08/03 04:27:22;;;;;;;11.82;10.73;;;;;;;-144.30;40.49;82223.16;5089034;28;20679;-50
2023/08/03 04:30:17;;;;;;;18.30;11.73;;;;;;;-144.30;39.72;82159.59;5091854;28;20199;-53
2023/08/03 04:33:11;;;;;;;24.08;12.50;;;;;;;-144.30;38.77;82050.38;5093158;28;20234;-54
2023/08/03 04:36:06;;;;;;;17.02;10.93;;;;;;;-144.30;38.89;81996.75;5091356;28;20218;-52
2023/08/03 04:38:53;;;;;;;14.90;10.93;;;;;;;-144.30;37.35;81823.97;5092611;28;20238;-51
2023/08/03 04:41:56;;;;;;;14.20;10.45;;;;;;;-144.30;36.29;81629.34;5093000;28;20202;-51
2023/08/03 04:44:52;;;;;;;10.70;9.60;;;;;;;-144.30;34.99;81412.91;5088456;28;20245;-51
2023/08/03 04:50:32;;;;;;;11.48;10.25;;;;;;;-144.30;33.43;81132.94;5089698;28;20202;-53
2023/08/03 04:53:18;;;;;;;10.90;9.88;;;;;;;-144.30;32.87;80930.44;5092714;28;20733;-53
2023/08/03 04:56:10;;;;;;;11.15;10.25;;;;;;;-144.30;32.76;81017.78;5092591;28;20289;-52
2023/08/03 04:59:11;;;;;;;10.50;9.45;;;;;;;-144.30;32.30;80936.41;5092348;28;20230;-54
2023/08/03 05:04:53;;;;;;;11.48;9.40;;;;;;;-144.30;32.54;80898.66;5091228;28;20207;-54
2023/08/03 05:07:44;;;;;;;13.35;10.38;;;;;;;-144.30;31.81;80708.09;5091852;28;20283;-54
2023/08/03 05:10:36;;;;;;;12.48;10.55;;;;;;;-144.30;31.41;80650.50;5092035;28;20241;-53
2023/08/03 05:13:27;;;;;;;;;;;;;;;;;;;;;
2023/08/03 05:16:39;;;;;;;13.40;10.70;;;;;;;-144.30;31.15;80537.34;5091578;28;20234;-53
2023/08/03 05:19:23;;;;;;;14.85;10.23;;;;;;;-144.30;29.54;80257.47;5092023;28;20231;-53
2023/08/03 05:21:52;;;;;;;10.18;9.30;;;;;;;-144.30;30.14;80374.56;5091301;28;20222;-54
2023/08/03 05:24:25;;;;;;;11.35;10.35;;;;;;;-144.30;30.35;80581.03;5095075;27;20631;-54
2023/08/03 05:26:54;;;;;;;10.73;9.75;;;;;;;-144.30;30.52;80606.84;5132625;27;20255;-54
2023/08/03 05:29:23;;;;;;;10.32;9.52;;;;;;;-144.30;30.43;80588.97;5132702;27;20190;-54
2023/08/03 05:31:59;;;;;;;10.77;10.02;;;;;;;-144.30;30.35;80541.31;5112094;28;20670;-52
2023/08/03 05:34:52;;;;;;;13.65;10.05;;;;;;;-144.30;29.66;80311.06;5112069;28;20290;-53
2023/08/03 05:37:44;;;;;;;10.52;9.50;;;;;;;-144.30;29.29;80174.09;5110873;28;20201;-54
2023/08/03 05:40:27;;;;;;;13.80;9.60;;;;;;;-144.30;29.06;80041.09;5111247;28;20247;-54
2023/08/03 05:43:27;;;;;;;11.00;10.07;;;;;;;-144.30;29.24;80124.47;5112010;28;20208;-54
2023/08/03 05:46:21;;;;;;;10.55;9.80;;;;;;;-144.30;28.22;79814.84;5111447;28;20213;-51
2023/08/03 05:49:18;;;;;;;10.82;9.75;;;;;;;-144.30;27.91;79660.03;5112243;28;20655;-54
2023/08/03 05:52:06;;;;;;;11.20;9.68;;;;;;;-144.30;27.44;79342.50;5111423;28;20629;-51
2023/08/03 05:54:48;;;;;;;10.35;9.40;;;;;;;-144.30;28.32;79689.81;5115697;27;20684;-51
2023/08/03 05:57:23;;;;;;;10.18;9.48;;;;;;;-144.30;28.00;79616.38;5128699;27;20193;-51
2023/08/03 06:00:00;;;;;;;10.60;9.50;;;;;;;-144.30;28.46;79822.78;5128624;27;20189;-50
2023/08/03 06:02:35;;;;;;;9.68;8.98;;;;;;;-144.30;27.71;79626.31;5131612;27;20231;-53
2023/08/03 06:05:09;;;;;;;10.50;9.55;;;;;;;-144.30;27.90;79757.28;5132309;27;20487;-52
2023/08/03 06:07:44;;;;;;;9.55;8.80;;;;;;;-144.30;28.02;79787.06;5131767;27;20207;-53
2023/08/03 06:10:17;;;;;;;12.68;9.68;;;;;;;-144.30;27.91;79862.47;5131747;27;20192;-52
2023/08/03 06:12:49;;;;;;;11.23;10.52;;;;;;;-144.30;28.29;79860.50;5131702;27;20201;-51
2023/08/03 06:15:22;;;;;;;11.05;10.13;;;;;;;-144.30;28.31;79737.44;5132055;27;20593;-52
2023/08/03 06:17:51;;;;;;;23.90;11.32;;;;;;;-144.30;28.54;79922.03;5131791;27;20224;-53
2023/08/03 06:20:26;;;;;;;13.10;9.90;;;;;;;-144.30;28.28;80043.09;5131584;27;20725;-51
2023/08/03 06:22:56;;;;;;;12.38;9.52;;;;;;;-144.30;28.33;79880.34;5131152;27;20197;-54
2023/08/03 06:25:27;;;;;;;10.55;9.82;;;;;;;-144.30;28.10;79802.94;5131281;27;20233;-51
2023/08/03 06:27:55;;;;;;;11.55;9.48;;;;;;;-144.30;27.79;79757.28;5131355;27;20189;-51
2023/08/03 06:30:29;;;;;;;10.18;9.30;;;;;;;-144.30;27.91;79769.19;5131533;27;20915;-51
2023/08/03 06:33:02;;;;;;;10.60;9.55;;;;;;;-144.30;27.91;79713.63;5131017;27;20198;-53
2023/08/03 06:35:42;;;;;;;9.95;9.15;;;;;;;-144.30;27.56;79721.56;5131863;27;20197;-54
2023/08/03 06:38:14;;;;;;;10.10;9.38;;;;;;;-144.30;27.54;79519.13;5131049;27;20297;-52
2023/08/03 06:40:46;;;;;;;10.95;9.90;;;;;;;-144.30;27.38;79419.91;5131387;27;20580;-50
2023/08/03 06:43:20;;;;;;;10.55;9.60;;;;;;;-144.30;27.37;79493.34;5129443;27;20212;-53
2023/08/03 06:45:55;;;;;;;10.27;9.43;;;;;;;-144.30;27.50;79511.19;5131642;27;20601;-54
2023/08/03 06:48:28;;;;;;;10.43;9.52;;;;;;;-144.30;27.77;79612.41;5131839;27;20590;-52
2023/08/03 06:51:01;;;;;;;10.50;9.60;;;;;;;-144.30;28.25;79898.19;5130513;27;20204;-54
2023/08/03 06:53:33;;;;;;;10.38;9.38;;;;;;;-144.30;28.61;80076.84;5131497;27;20189;-51
2023/08/03 06:56:04;;;;;;;12.85;9.68;;;;;;;-144.30;29.04;80182.03;5131351;27;20197;-51
2023/08/03 06:58:33;;;;;;;9.95;9.25;;;;;;;-144.30;28.64;80068.91;5131313;27;20223;-53
2023/08/03 07:01:02;;;;;;;10.38;9.48;;;;;;;-144.30;29.26;80279.28;5131557;27;20192;-54
2023/08/03 07:03:30;;;;;;;11.15;10.13;;;;;;;-144.30;29.92;80487.72;5131565;27;20418;-53
2023/08/03 07:06:01;;;;;;;11.48;10.43;;;;;;;-144.30;29.89;80485.75;5131148;27;20216;-54
2023/08/03 07:08:28;;;;;;;11.80;10.30;;;;;;;-144.30;29.70;80350.75;5131460;27;20653;-52
2023/08/03 07:11:00;;;;;;;12.27;11.18;;;;;;;-144.30;29.89;80350.75;5131031;27;20664;-54
2023/08/03 07:13:31;;;;;;;11.43;10.52;;;;;;;-144.30;29.97;80442.06;5131250;27;20637;-52
2023/08/03 07:16:17;;;;;;;10.73;9.65;;;;;;;-144.30;30.14;80541.31;5130286;27;20280;-55
2023/08/03 07:18:49;;;;;;;11.63;10.65;;;;;;;-144.30;30.18;80598.91;5130726;27;20712;-54
2023/08/03 07:21:20;;;;;;;10.95;10.25;;;;;;;-144.30;30.00;80608.81;5130813;27;20252;-53
2023/08/03 07:23:49;;;;;;;11.45;10.48;;;;;;;-144.30;29.96;80465.91;5130905;27;20197;-50
2023/08/03 07:26:20;;;;;;;14.90;10.63;;;;;;;-144.30;29.60;80380.53;5130703;27;20601;-51
2023/08/03 07:28:52;;;;;;;11.18;10.40;;;;;;;-144.30;29.16;80378.56;5130706;27;20501;-51
2023/08/03 07:31:23;;;;;;;10.93;10.10;;;;;;;-144.30;29.36;80396.41;5130933;27;20669;-53
2023/08/03 07:33:52;;;;;;;15.55;10.38;;;;;;;-144.30;29.38;80422.22;5130680;27;20733;-52
2023/08/03 07:36:24;;;;;;;10.70;9.90;;;;;;;-144.30;29.49;80487.72;5130731;27;20201;-51
2023/08/03 07:38:58;;;;;;;10.70;9.85;;;;;;;-144.30;29.01;80394.44;5130572;27;20213;-51
2023/08/03 07:41:26;;;;;;;10.18;9.30;;;;;;;-144.30;28.61;80076.84;5130409;27;20583;-54
2023/08/03 07:43:56;;;;;;;11.13;9.88;;;;;;;-144.30;27.79;79866.44;5130675;27;20669;-52
2023/08/03 07:46:25;;;;;;;10.10;9.25;;;;;;;-144.30;27.21;79669.97;5130665;27;20652;-51
2023/08/03 07:48:55;;;;;;;10.50;9.85;;;;;;;-144.30;27.22;79505.25;5130647;27;20285;-51
2023/08/03 07:51:26;;;;;;;10.50;9.98;;;;;;;-144.30;26.89;79255.19;5129264;27;20201;-54
2023/08/03 07:53:56;;;;;;;15.00;12.13;;;;;;;-144.30;27.14;79465.56;5130563;27;20197;-52
2023/08/03 07:56:26;;;;;;;12.57;11.30;;;;;;;-144.30;27.14;79322.66;5130541;27;20211;-51
2023/08/03 07:58:56;;;;;;;13.15;11.50;;;;;;;-144.30;26.87;79086.53;5130088;27;20252;-54
2023/08/03 08:01:29;;;;;;;12.02;10.93;;;;;;;-144.30;27.16;79400.06;5130569;27;20284;-54
2023/08/03 08:04:01;;;;;;;14.63;10.65;;;;;;;-144.30;27.14;79409.97;5130203;27;20284;-54
2023/08/03 08:06:35;;;;;;;11.18;10.40;;;;;;;-144.30;27.33;79441.75;5130490;27;20221;-54
2023/08/03 08:09:05;;;;;;;12.57;11.43;;;;;;;-144.30;27.01;79161.94;5130786;27;20185;-54
2023/08/03 08:11:40;;;;;;;12.05;11.00;;;;;;;-144.30;26.75;78949.63;5130095;27;20208;-54
2023/08/03 08:14:10;;;;;;;11.48;10.68;;;;;;;-144.30;26.84;79114.31;5130221;27;20662;-51
2023/08/03 08:16:41;;;;;;;11.75;10.75;;;;;;;-144.30;27.11;79273.06;5129936;27;20283;-50
2023/08/03 08:19:13;;;;;;;13.32;11.60;;;;;;;-144.30;27.30;79435.78;5130148;28;20240;-51
2023/08/03 08:21:42;;;;;;;11.75;10.60;;;;;;;-144.30;27.10;79211.53;5129982;28;20722;-51
2023/08/03 08:24:15;;;;;;;12.35;11.48;;;;;;;-144.30;27.21;79247.25;5129967;28;20201;-50
2023/08/03 08:26:49;;;;;;;12.55;11.45;;;;;;;-144.30;26.92;79013.09;5128884;28;20238;-52
2023/08/03 08:29:22;;;;;;;12.68;11.30;;;;;;;-144.30;27.45;79292.91;5130274;28;20254;-54
2023/08/03 08:31:52;;;;;;;12.63;11.45;;;;;;;-144.30;28.20;79761.25;5129495;28;20197;-54
2023/08/03 08:34:24;;;;;;;13.00;11.82;;;;;;;-144.30;28.40;79929.97;5129445;28;20193;-52
2023/08/03 08:37:00;;;;;;;14.27;12.15;;;;;;;-144.30;28.97;80092.72;5130009;28;20645;-50
2023/08/03 08:39:37;;;;;;;13.65;12.38;;;;;;;-144.30;29.71;80305.09;5129888;28;20221;-51
2023/08/03 08:42:17;;;;;;;13.43;12.30;;;;;;;-144.30;30.00;80338.84;5129716;28;20283;-52
2023/08/03 08:44:46;;;;;;;14.77;13.32;;;;;;;-144.30;30.29;80424.22;5128519;28;20189;-52
2023/08/03 08:47:19;;;;;;;14.35;12.95;;;;;;;-144.30;29.87;80311.06;5129220;28;20197;-54
2023/08/03 08:49:51;;;;;;;14.50;13.13;;;;;;;-144.30;30.16;80334.88;5129667;28;20718;-55
2023/08/03 08:52:28;;;;;;;16.15;13.18;;;;;;;-144.30;29.87;80207.84;5129786;28;20205;-52
2023/08/03 08:55:26;;;;;;;13.48;12.18;;;;;;;-144.30;31.32;80664.41;5129872;28;20229;-51
2023/08/03 08:57:58;;;;;;;14.70;13.25;;;;;;;-144.30;32.05;80870.88;5129689;28;20242;-51
2023/08/03 09:00:29;;;;;;;13.02;11.77;;;;;;;-144.30;32.41;80898.66;5124104;28;20228;-52
2023/08/03 09:03:03;;;;;;;13.88;12.48;;;;;;;-144.30;31.88;80658.44;5127855;28;20193;-55
2023/08/03 09:05:36;;;;;;;14.63;13.13;;;;;;;-144.30;32.57;81496.31;5129162;28;20196;-54
2023/08/03 09:08:14;;;;;;;14.13;12.75;;;;;;;-144.30;32.16;80821.25;5129059;28;20271;-55
2023/08/03 09:11:00;;;;;;;13.25;11.95;;;;;;;-144.30;32.37;80737.88;5128115;28;20694;-55
2023/08/03 09:13:44;;;;;;;13.48;12.02;;;;;;;-144.30;32.34;80700.16;5128178;27;20246;-55
2023/08/03 09:16:33;;;;;;;12.52;11.25;;;;;;;-144.30;32.15;80624.72;5129359;27;20221;-55
2023/08/03 09:19:12;;;;;;;13.93;12.85;;;;;;;-144.30;33.07;80735.88;5133085;27;20307;-55
2023/08/03 09:21:41;;;;;;;12.60;11.80;;;;;;;-144.30;33.11;80698.16;5132981;27;20572;-54
2023/08/03 09:24:23;;;;;;;12.73;11.73;;;;;;;-144.30;33.76;80763.66;5133390;27;20680;-54
2023/08/03 09:26:53;;;;;;;15.75;12.27;;;;;;;-144.30;33.44;80755.72;5132375;27;20212;-54
2023/08/03 09:29:23;;;;;;;13.43;12.00;;;;;;;-144.30;33.94;80853.00;5132880;27;20218;-54
2023/08/03 09:32:05;;;;;;;13.18;12.18;;;;;;;-144.30;34.32;81007.88;5132374;27;20262;-55
2023/08/03 09:34:37;;;;;;;12.75;11.85;;;;;;;-144.30;33.87;80880.81;5128109;27;20680;-51
2023/08/03 09:37:14;;;;;;;12.75;11.63;;;;;;;-144.30;34.53;80751.75;5132514;27;20201;-51
2023/08/03 09:39:55;;;;;;;12.52;11.40;;;;;;;-144.30;34.96;81009.84;5132821;27;20213;-51
2023/08/03 09:42:25;;;;;;;13.25;11.95;;;;;;;-144.30;35.29;81035.66;5132686;27;20225;-55
2023/08/03 09:44:55;;;;;;;13.00;11.70;;;;;;;-144.30;34.87;80934.41;5132472;27;20205;-54
2023/08/03 09:47:24;;;;;;;12.50;11.45;;;;;;;-144.30;34.77;80898.66;5131911;27;20189;-54
2023/08/03 09:49:53;;;;;;;12.27;11.50;;;;;;;-144.30;35.21;80995.97;5131864;27;20198;-54
2023/08/03 09:52:27;;;;;;;12.35;11.15;;;;;;;-144.30;34.85;80966.19;5132576;27;20193;-55
2023/08/03 09:55:06;;;;;;;12.82;11.65;;;;;;;-144.30;35.54;81007.88;5132757;27;20201;-55
2023/08/03 09:57:50;;;;;;;20.88;12.30;;;;;;;-144.30;34.81;80912.56;5132867;27;20194;-54
2023/08/03 10:00:24;;;;;;;11.95;11.05;;;;;;;-144.30;34.71;80849.03;5132719;27;20229;-54
2023/08/03 10:02:59;;;;;;;12.60;11.57;;;;;;;-144.30;34.84;80856.97;5131187;27;20192;-54
2023/08/03 10:05:31;;;;;;;13.25;12.07;;;;;;;-144.30;34.93;81031.69;5131861;27;20288;-54
2023/08/03 10:08:18;;;;;;;12.35;11.27;;;;;;;-144.30;34.90;80993.97;5132447;27;20193;-55
2023/08/03 10:10:49;;;;;;;11.38;10.55;;;;;;;-144.30;34.42;81003.91;5132539;27;20207;-55
2023/08/03 10:13:21;;;;;;;14.38;13.25;;;;;;;-144.30;35.96;81130.97;5132691;27;20200;-55
2023/08/03 10:15:54;;;;;;;12.88;11.75;;;;;;;-144.30;35.66;81164.72;5132324;27;20685;-55
2023/08/03 10:18:24;;;;;;;12.63;11.77;;;;;;;-144.30;34.92;81164.72;5132012;27;20205;-55
2023/08/03 10:20:54;;;;;;;12.23;11.38;;;;;;;-144.30;37.04;81327.53;5110954;28;20221;-50
2023/08/03 10:23:24;;;;;;;12.73;11.82;;;;;;;-144.30;36.33;81458.59;5110996;28;20276;-52
2023/08/03 10:26:20;;;;;;;14.77;13.48;;;;;;;-144.30;37.93;81591.63;5110916;28;20762;-52
2023/08/03 10:29:04;;;;;;;14.25;12.98;;;;;;;-144.30;39.51;81593.63;5110405;28;20277;-51
2023/08/03 10:32:03;;;;;;;14.88;13.50;;;;;;;-144.30;38.01;81591.63;5111844;28;20199;-51
2023/08/03 10:34:52;;;;;;;14.60;13.02;;;;;;;-144.30;39.04;81629.34;5111733;28;20195;-55
2023/08/03 10:37:51;;;;;;;13.68;12.77;;;;;;;-144.30;39.80;81623.41;5110728;28;20562;-54
2023/08/03 10:40:26;;;;;;;15.13;13.57;;;;;;;-144.30;39.81;81661.13;5111196;28;20313;-55
2023/08/03 10:45:59;;;;;;;14.93;13.63;;;;;;;-144.30;40.19;81671.06;5107069;27;20544;-55
2023/08/03 10:48:34;;;;;;;14.05;12.98;;;;;;;-144.30;39.43;81667.09;5107228;28;20201;-51
2023/08/03 10:51:02;;;;;;;14.60;13.50;;;;;;;-144.30;39.75;81661.13;5107480;28;20200;-51
2023/08/03 10:53:30;;;;;;;14.93;13.70;;;;;;;-144.30;39.44;81677.00;5107548;28;20564;-51
2023/08/03 10:56:06;;;;;;;15.75;14.45;;;;;;;-144.30;39.31;81732.63;5106917;28;20589;-54
2023/08/03 10:58:51;;;;;;;15.07;13.77;;;;;;;-144.30;39.34;81710.78;5106676;28;20615;-52
2023/08/03 11:01:26;;;;;;;17.40;15.63;;;;;;;-144.30;39.05;81663.13;5106917;28;20315;-51
2023/08/03 11:03:56;;;;;;;18.27;16.80;;;;;;;-144.30;39.02;81696.88;5106007;28;20706;-52
2023/08/03 11:06:26;;;;;;;18.67;17.10;;;;;;;-144.30;38.64;81647.22;5106863;28;20213;-54
2023/08/03 11:08:56;;;;;;;24.42;22.23;;;;;;;-144.30;38.73;81690.91;5106773;28;20205;-53
2023/08/03 11:11:32;;;;;;;27.10;24.20;;;;;;;-144.30;38.18;81645.25;5106670;28;20191;-52
2023/08/03 11:14:04;;;;;;;27.33;24.92;;;;;;;-144.30;38.06;81651.19;5106662;28;20243;-55
2023/08/03 11:16:37;;;;;;;34.17;25.85;;;;;;;-144.30;38.11;81637.31;5106874;28;20195;-54
2023/08/03 11:19:06;;;;;;;28.38;25.48;;;;;;;-144.30;37.85;81627.38;5106787;28;20675;-52
2023/08/03 11:21:34;;;;;;;25.88;23.48;;;;;;;-144.30;37.25;81573.75;5106718;28;20202;-55
2023/08/03 11:24:04;;;;;;;24.60;22.17;;;;;;;-144.30;36.95;81617.44;5106600;28;20732;-51
2023/08/03 11:26:33;;;;;;;23.98;21.48;;;;;;;-144.30;36.80;81587.66;5106700;28;20671;-54
2023/08/03 11:29:03;;;;;;;23.40;20.90;;;;;;;-144.30;36.41;81635.31;5106778;28;20281;-54
2023/08/03 11:31:33;;;;;;;24.80;22.60;;;;;;;-144.30;36.46;81609.50;5106276;28;20281;-55
2023/08/03 11:34:01;;;;;;;22.48;20.33;;;;;;;-144.30;35.39;81601.56;5106026;28;20195;-54
2023/08/03 11:36:34;;;;;;;20.98;19.08;;;;;;;-144.30;34.85;81563.81;5106454;28;20251;-54
2023/08/03 11:39:01;;;;;;;20.00;17.95;;;;;;;-144.30;35.60;81551.91;5106158;28;20248;-51
2023/08/03 11:41:32;;;;;;;22.60;18.00;;;;;;;-144.30;35.47;81549.94;5106134;28;20840;-57
2023/08/03 11:44:07;;;;;;;19.65;17.63;;;;;;;-144.30;35.20;81478.44;5105949;28;20728;-54
2023/08/03 11:46:37;;;;;;;18.00;16.23;;;;;;;-144.30;34.46;81490.34;5106326;28;20233;-54
2023/08/03 11:49:08;;;;;;;19.73;18.02;;;;;;;-144.30;34.52;81426.81;5106455;28;20221;-53
2023/08/03 11:51:38;;;;;;;18.38;16.65;;;;;;;-144.30;34.91;81395.03;5105648;28;20204;-55
2023/08/03 11:54:09;;;;;;;15.23;13.95;;;;;;;-144.30;33.70;81395.03;5106059;28;20194;-55
2023/08/03 11:56:41;;;;;;;16.92;15.02;;;;;;;-144.30;33.99;81420.84;5095789;28;20187;-54
2023/08/03 11:59:08;;;;;;;15.57;14.20;;;;;;;-144.30;33.41;81385.13;5092333;28;20231;-52
2023/08/03 12:01:47;;;;;;;11.05;10.30;;;;;;;-144.30;31.81;81297.75;5092824;28;20315;-51
2023/08/03 12:04:17;;;;;;;11.27;10.38;;;;;;;-144.30;32.21;81315.63;5092229;28;20309;-55
2023/08/03 12:06:48;;;;;;;11.73;10.85;;;;;;;-144.30;32.49;81337.47;5092115;28;20275;-55
2023/08/03 12:09:20;;;;;;;11.85;10.90;;;;;;;-144.30;32.77;81397.03;5091963;28;20205;-58
2023/08/03 12:11:48;;;;;;;10.68;9.98;;;;;;;-144.30;32.29;81401.00;5091985;28;20440;-51
2023/08/03 12:14:17;;;;;;;10.85;10.05;;;;;;;-144.30;32.42;81391.06;5092022;28;20195;-52
2023/08/03 12:16:47;;;;;;;10.90;10.20;;;;;;;-144.30;31.76;81208.41;5091941;28;20202;-51
2023/08/03 12:19:14;;;;;;;10.23;9.60;;;;;;;-144.30;31.13;81401.00;5091861;28;20278;-51
2023/08/03 12:21:45;;;;;;;11.52;10.50;;;;;;;-144.30;32.58;81371.22;5091713;28;20203;-51
2023/08/03 12:24:18;;;;;;;10.88;10.18;;;;;;;-144.30;32.70;81379.16;5091801;28;20687;-51
2023/08/03 12:26:47;;;;;;;10.90;10.05;;;;;;;-144.30;32.90;81375.19;5091641;28;20199;-54
2023/08/03 12:29:18;;;;;;;11.00;10.15;;;;;;;-144.30;32.79;81335.47;5091690;28;20686;-54
2023/08/03 12:31:52;;;;;;;11.15;10.05;;;;;;;-144.30;33.32;81323.56;5091794;28;20668;-55
2023/08/03 12:34:24;;;;;;;11.68;10.93;;;;;;;-144.30;33.22;81311.66;5091513;28;20662;-55